Flag Island, MN

12:36 AM CST on February 23, 2018 (GMT -0600)
Flag Island

Weather History for KFGN - January, 2014

Change the Weather History Date:

Thursday, January 30, 2014

  Actual Average Record
Temperature  
Mean Temperature -8 °F -  
Max Temperature -4 °F 13 °F 35 °F (1999)
Min Temperature -13 °F 0 °F -31 °F (2004)
Degree Days  
Heating Degree Days 74    
Moisture  
Dew Point -16 °F    
Average Humidity 69    
Maximum Humidity 77    
Minimum Humidity 55    
Precipitation  
Precipitation 0.00 in - - ()
Sea Level Pressure  
Sea Level Pressure 29.73 in    
Wind  
Wind Speed 14 mph (WNW)    
Max Wind Speed 20 mph    
Max Gust Speed 26 mph    
Visibility 10 miles    
Events      
Averages and records for this station are not official NWS values.
T = Trace of Precipitation, MM = Missing Value Source: NWS Daily Summary

Daily Weather History Graph

Daily Weather History Graph

Search for Another Location

Airport or City:

Trip Planner

Search our weather history database for the weather conditions in past years. The results will help you decide how hot, cold, wet, or windy it might be!

Date:

Astronomy

Jan. 30, 2014 Rise Set
Actual Time 7:53 AM CST 5:12 PM CST
Civil Twilight 7:19 AM CST 5:47 PM CST
Nautical Twilight 6:40 AM CST 6:25 PM CST
Astronomical Twilight 6:03 AM CST 7:03 PM CST
Moon 7:16 AM CST (1/30) 5:31 PM CST (1/30)
Length of Visible Light 10h 28m
Length of Day
9h 19m
Waning Crescent, 0% of the Moon is Illuminated
Jan 30
Waning Crescent
Jan 30
New
Feb 6
First Quarter
Feb 14
Full
Feb 22
Last Quarter

Hourly Weather History & Observations

Time (CST) Temp. Windchill Dew Point Humidity Pressure Visibility Wind Dir Wind Speed Gust Speed Precip Events Conditions
12:13 AM -4.0 °F -23.0 °F -11.2 °F 71% 29.55 in 10.0 mi WNW 12.7 mph - N/A   Clear
12:33 AM -5.8 °F -25.2 °F -11.2 °F 77% 29.55 in 10.0 mi WNW 12.7 mph - N/A   Clear
12:54 AM -5.8 °F -27.5 °F -11.2 °F 77% 29.55 in 10.0 mi WNW 16.1 mph 19.6 mph N/A   Clear
1:13 AM -5.8 °F -26.0 °F -11.2 °F 77% 29.56 in 10.0 mi WNW 13.8 mph - N/A   Clear
1:33 AM -5.8 °F -26.0 °F -13.0 °F 71% 29.56 in 10.0 mi WNW 13.8 mph - N/A   Clear
1:54 AM -5.8 °F -28.2 °F -13.0 °F 71% 29.57 in 10.0 mi WNW 17.3 mph 23.0 mph N/A   Clear
2:13 AM -5.8 °F -26.0 °F -13.0 °F 71% 29.58 in 10.0 mi WNW 13.8 mph - N/A   Clear
2:33 AM -7.6 °F -27.5 °F -13.0 °F 77% 29.59 in 10.0 mi WNW 12.7 mph - N/A   Clear
2:54 AM -7.6 °F -29.8 °F -14.8 °F 71% 29.60 in 10.0 mi NW 16.1 mph - N/A   Clear
3:13 AM -7.6 °F -27.5 °F -14.8 °F 71% 29.60 in 10.0 mi NW 12.7 mph - N/A   Clear
3:33 AM -7.6 °F -26.6 °F -14.8 °F 71% 29.60 in 10.0 mi NW 11.5 mph - N/A   Clear
3:53 AM -7.6 °F -27.5 °F -14.8 °F 71% 29.61 in 10.0 mi NW 12.7 mph - N/A   Clear
4:13 AM -9.4 °F -32.1 °F -14.8 °F 77% 29.61 in 10.0 mi NW 16.1 mph - N/A   Clear
4:34 AM -9.4 °F -33.5 °F -14.8 °F 77% 29.61 in 10.0 mi NW 18.4 mph - N/A   Clear
4:53 AM -9.4 °F -32.1 °F -16.6 °F 71% 29.62 in 10.0 mi NW 16.1 mph - N/A   Clear
5:13 AM -9.4 °F -31.4 °F -16.6 °F 71% 29.63 in 10.0 mi NW 15.0 mph - N/A   Clear
5:34 AM -9.4 °F -30.6 °F -16.6 °F 71% 29.64 in 10.0 mi NW 13.8 mph - N/A   Clear
5:53 AM -9.4 °F -32.1 °F -16.6 °F 71% 29.65 in 10.0 mi NW 16.1 mph - N/A   Clear
6:13 AM -9.4 °F -31.4 °F -16.6 °F 71% 29.64 in 10.0 mi NW 15.0 mph - N/A   Clear
6:34 AM -9.4 °F -31.4 °F -16.6 °F 71% 29.65 in 10.0 mi NW 15.0 mph - N/A   Clear
6:53 AM -11.2 °F -32.1 °F -18.4 °F 70% 29.67 in 10.0 mi NW 12.7 mph - N/A   Clear
7:13 AM -11.2 °F -33.7 °F -18.4 °F 70% 29.68 in 10.0 mi NW 15.0 mph - N/A   Clear
7:34 AM -11.2 °F -33.7 °F -18.4 °F 70% 29.68 in 10.0 mi NW 15.0 mph - N/A   Clear
7:53 AM -11.2 °F -31.1 °F -18.4 °F 70% 29.69 in 10.0 mi NW 11.5 mph - N/A   Clear
8:13 AM -11.2 °F -33.7 °F -18.4 °F 70% 29.70 in 10.0 mi NW 15.0 mph - N/A   Clear
8:33 AM -13.0 °F -35.2 °F -18.4 °F 77% 29.70 in 10.0 mi NW 13.8 mph - N/A   Clear
8:53 AM -11.2 °F -32.1 °F -18.4 °F 70% 29.71 in 10.0 mi NW 12.7 mph - N/A   Clear
9:14 AM -11.2 °F -33.7 °F -18.4 °F 70% 29.72 in 10.0 mi WNW 15.0 mph - N/A   Clear
9:33 AM -11.2 °F -33.7 °F -18.4 °F 70% 29.73 in 10.0 mi NW 15.0 mph - N/A   Clear
9:54 AM -11.2 °F -33.7 °F -18.4 °F 70% 29.74 in 10.0 mi NW 15.0 mph - N/A   Clear
10:14 AM -11.2 °F -35.2 °F -18.4 °F 70% 29.74 in 10.0 mi NW 17.3 mph - N/A   Clear
10:33 AM -9.4 °F -33.5 °F -18.4 °F 65% 29.74 in 10.0 mi NW 18.4 mph - N/A   Clear
10:53 AM -9.4 °F -32.8 °F -16.6 °F 71% 29.75 in 10.0 mi NW 17.3 mph - N/A   Clear
11:13 AM -9.4 °F -34.1 °F -16.6 °F 71% 29.75 in 10.0 mi NW 19.6 mph - N/A   Clear
11:34 AM -9.4 °F -33.5 °F -16.6 °F 71% 29.76 in 10.0 mi NW 18.4 mph - N/A   Clear
11:53 AM -7.6 °F -30.5 °F -16.6 °F 65% 29.76 in 10.0 mi NW 17.3 mph - N/A   Clear
12:13 PM -7.6 °F -28.3 °F -16.6 °F 65% 29.75 in 10.0 mi NW 13.8 mph - N/A   Clear
12:34 PM -7.6 °F -29.8 °F -14.8 °F 71% 29.75 in 10.0 mi NW 16.1 mph - N/A   Clear
12:53 PM -7.6 °F -28.3 °F -16.6 °F 65% 29.74 in 10.0 mi NW 13.8 mph - N/A   Clear
1:13 PM -5.8 °F -24.4 °F -16.6 °F 60% 29.75 in 10.0 mi NNW 11.5 mph - N/A   Clear
1:34 PM -5.8 °F -26.8 °F -14.8 °F 65% 29.75 in 10.0 mi WNW 15.0 mph - N/A   Clear
1:53 PM -5.8 °F -28.2 °F -16.6 °F 60% 29.74 in 10.0 mi WNW 17.3 mph 20.7 mph N/A   Clear
2:13 PM -4.0 °F -25.8 °F -16.6 °F 55% 29.74 in 10.0 mi WNW 17.3 mph - N/A   Clear
2:33 PM -4.0 °F -25.2 °F -16.6 °F 55% 29.75 in 10.0 mi West 16.1 mph 21.9 mph N/A   Clear
2:53 PM -4.0 °F -25.8 °F -16.6 °F 55% 29.76 in 10.0 mi WNW 17.3 mph 21.9 mph N/A   Clear
3:14 PM -4.0 °F -26.4 °F -16.6 °F 55% 29.76 in 10.0 mi WNW 18.4 mph - N/A   Clear
3:33 PM -4.0 °F -24.5 °F -16.6 °F 55% 29.77 in 10.0 mi WNW 15.0 mph - N/A   Clear
3:53 PM -5.8 °F -28.2 °F -16.6 °F 60% 29.77 in 10.0 mi WNW 17.3 mph - N/A   Clear
4:14 PM -5.8 °F -27.5 °F -16.6 °F 60% 29.78 in 10.0 mi WNW 16.1 mph - N/A   Clear
4:33 PM -5.8 °F -28.2 °F -16.6 °F 60% 29.78 in 10.0 mi WNW 17.3 mph - N/A   Clear
4:53 PM -5.8 °F -28.8 °F -16.6 °F 60% 29.80 in 10.0 mi WNW 18.4 mph - N/A   Clear
5:14 PM -7.6 °F -28.3 °F -16.6 °F 65% 29.81 in 10.0 mi WNW 13.8 mph - N/A   Mostly Cloudy
5:33 PM -7.6 °F -30.5 °F -16.6 °F 65% 29.81 in 10.0 mi WNW 17.3 mph 26.5 mph N/A   Overcast
5:53 PM -7.6 °F -30.5 °F -16.6 °F 65% 29.82 in 10.0 mi WNW 17.3 mph - N/A   Mostly Cloudy
6:14 PM -7.6 °F -28.3 °F -16.6 °F 65% 29.82 in 10.0 mi WNW 13.8 mph - N/A   Mostly Cloudy
6:33 PM -7.6 °F -26.6 °F -16.6 °F 65% 29.82 in 10.0 mi WNW 11.5 mph - N/A   Overcast
6:53 PM -7.6 °F -26.6 °F -16.6 °F 65% 29.83 in 10.0 mi West 11.5 mph - N/A   Overcast
7:14 PM -9.4 °F -25.6 °F -16.6 °F 71% 29.83 in 10.0 mi West 8.1 mph - N/A   Scattered Clouds
7:33 PM -9.4 °F -25.6 °F -16.6 °F 71% 29.83 in 10.0 mi West 8.1 mph - N/A   Clear
7:53 PM -9.4 °F -25.6 °F -16.6 °F 71% 29.83 in 10.0 mi West 8.1 mph - N/A   Clear
8:14 PM -11.2 °F -27.8 °F -18.4 °F 70% 29.83 in 10.0 mi WSW 8.1 mph - N/A   Clear
8:33 PM -11.2 °F -27.8 °F -16.6 °F 77% 29.83 in 10.0 mi WSW 8.1 mph - N/A   Clear
8:53 PM -13.0 °F -30.0 °F -18.4 °F 77% 29.84 in 10.0 mi WSW 8.1 mph - N/A   Clear
9:14 PM -13.0 °F -31.3 °F -18.4 °F 77% 29.84 in 10.0 mi SW 9.2 mph - N/A   Clear
9:33 PM -13.0 °F -30.0 °F -18.4 °F 77% 29.84 in 10.0 mi WSW 8.1 mph - N/A   Mostly Cloudy
9:53 PM -11.2 °F -27.8 °F -16.6 °F 77% 29.85 in 10.0 mi WSW 8.1 mph - N/A   Overcast
10:13 PM -11.2 °F -29.0 °F -16.6 °F 77% 29.85 in 10.0 mi WSW 9.2 mph - N/A   Overcast
10:33 PM -9.4 °F -26.8 °F -16.6 °F 71% 29.85 in 10.0 mi WSW 9.2 mph - N/A   Overcast
10:54 PM -9.4 °F -26.8 °F -14.8 °F 77% 29.85 in 10.0 mi WSW 9.2 mph - N/A   Overcast
11:13 PM -9.4 °F -26.8 °F -14.8 °F 77% 29.85 in 10.0 mi WSW 9.2 mph - N/A   Overcast
11:33 PM -7.6 °F -23.4 °F -14.8 °F 71% 29.86 in 10.0 mi SW 8.1 mph - N/A   Overcast
11:54 PM -9.4 °F -26.8 °F -14.8 °F 77% 29.86 in 10.0 mi SW 9.2 mph - N/A   Overcast